Time;durP1;ratioP1;P1;durP2;ratioP2;P2;SDS_P1;SDS_P2;PMS_P1;PMS_P2;Temp;Humidity;BMP_temperature;BMP_pressure;BME280_temperature;BME280_humidity;BME280_pressure;Samples;Min_cycle;Max_cycle;Signal;HPM_P1;HPM_P2
2024/03/18 00:02:41;;;;;;;;;;;;;;;;;;137056;1275;23003;-79
2024/03/18 00:05:42;;;;;;;;;;;;;;;;;;136940;1275;22520;-77
2024/03/18 00:08:43;;;;;;;;;;;;;;;;;;137317;1275;22533;-79
2024/03/18 00:11:44;;;;;;;;;;;;;;;;;;137097;1275;22514;-78
2024/03/18 00:14:45;;;;;;;;;;;;;;;;;;137024;1275;22875;-78
2024/03/18 00:17:46;;;;;;;;;;;;;;;;;;137114;1275;22523;-76
2024/03/18 00:20:47;;;;;;;;;;;;;;;;;;137372;1275;22976;-76
2024/03/18 00:23:49;;;;;;;;;;;;;;;;;;137082;1275;22505;-79
2024/03/18 00:26:50;;;;;;;;;;;;;;;;;;137055;1275;24261;-79
2024/03/18 00:29:51;;;;;;;;;;;;;;;;;;137267;1270;23033;-79
2024/03/18 00:32:52;;;;;;;;;;;;;;;;;;136992;1275;23215;-76
2024/03/18 00:35:53;;;;;;;;;;;;;;;;;;137024;1275;22576;-80
2024/03/18 00:38:54;;;;;;;;;;;;;;;;;;137353;1275;22977;-77
2024/03/18 00:41:58;;;;;;;;;;;;;;;;;;137124;1275;22540;-77
2024/03/18 00:45:00;;;;;;;;;;;;;;;;;;137062;1275;22512;-78
2024/03/18 00:48:01;;;;;;;;;;;;;;;;;;137218;1275;22543;-80
2024/03/18 00:51:02;;;;;;;;;;;;;;;;;;137338;1270;23115;-79
2024/03/18 00:54:04;;;;;;;;;;;;;;;;;;137029;1275;22569;-79
2024/03/18 00:57:06;;;;;;;;;;;;;;;;;;137057;1275;23032;-78
2024/03/18 01:00:11;;;;;;;;;;;;;;;;;;137309;1275;22506;-76
2024/03/18 01:03:13;;;;;;;;;;;;;;;;;;137032;1275;22978;-77
2024/03/18 01:06:14;;;;;;;;;;;;;;;;;;136955;1275;22538;-77
2024/03/18 01:09:16;;;;;;;;;;;;;;;;;;137375;1275;23224;-77
2024/03/18 01:12:17;;;;;;;;;;;;;;;;;;137098;1275;22512;-79
2024/03/18 01:15:18;;;;;;;;;;;;;;;;;;137129;1275;23028;-78
2024/03/18 01:18:19;;;;;;;;;;;;;;;;;;137265;1275;22522;-79
2024/03/18 01:21:21;;;;;;;;;;;;;;;;;;137306;1275;22503;-78
2024/03/18 01:24:22;;;;;;;;;;;;;;;;;;137115;1275;22910;-79
2024/03/18 01:27:24;;;;;;;;;;;;;;;;;;137041;1275;22596;-79
2024/03/18 01:30:25;;;;;;;;;;;;;;;;;;137379;1275;22539;-79
2024/03/18 01:33:27;;;;;;;;;;;;;;;;;;137148;1275;22521;-79
2024/03/18 01:36:28;;;;;;;;;;;;;;;;;;137080;1275;22524;-76
2024/03/18 01:39:29;;;;;;;;;;;;;;;;;;137409;1275;22280;-77
2024/03/18 01:42:30;;;;;;;;;;;;;;;;;;137092;1275;22545;-77
2024/03/18 01:45:32;;;;;;;;;;;;;;;;;;137127;1275;22568;-76
2024/03/18 01:48:33;;;;;;;;;;;;;;;;;;137240;1275;22618;-79
2024/03/18 01:51:34;;;;;;;;;;;;;;;;;;137207;1275;22501;-78
2024/03/18 01:54:35;;;;;;;;;;;;;;;;;;137025;1275;22973;-77
2024/03/18 01:57:36;;;;;;;;;;;;;;;;;;137251;1275;22863;-78
2024/03/18 02:00:37;;;;;;;;;;;;;;;;;;137198;1275;22549;-75
2024/03/18 02:03:39;;;;;;;;;;;;;;;;;;137146;1275;23003;-76
2024/03/18 02:06:40;;;;;;;;;;;;;;;;;;137223;1275;22516;-78
2024/03/18 02:09:41;;;;;;;;;;;;;;;;;;137384;1275;22573;-78
2024/03/18 02:12:42;;;;;;;;;;;;;;;;;;137110;1275;22525;-77
2024/03/18 02:15:43;;;;;;;;;;;;;;;;;;137123;1275;22504;-78
2024/03/18 02:18:44;;;;;;;;;;;;;;;;;;137265;1275;22536;-79
2024/03/18 02:21:45;;;;;;;;;;;;;;;;;;136992;1275;22516;-78
2024/03/18 02:24:46;;;;;;;;;;;;;;;;;;137133;1275;23004;-78
2024/03/18 02:27:47;;;;;;;;;;;;;;;;;;137241;1275;25288;-79
2024/03/18 02:30:49;;;;;;;;;;;;;;;;;;137359;1275;22524;-76
2024/03/18 02:33:50;;;;;;;;;;;;;;;;;;137083;1275;22538;-78
2024/03/18 02:36:52;;;;;;;;;;;;;;;;;;137075;1275;22561;-78
2024/03/18 02:39:53;;;;;;;;;;;;;;;;;;137371;1275;22629;-78
2024/03/18 02:42:54;;;;;;;;;;;;;;;;;;137037;1275;22534;-79
2024/03/18 02:45:55;;;;;;;;;;;;;;;;;;137158;1275;22499;-78
2024/03/18 02:48:57;;;;;;;;;;;;;;;;;;137335;1275;22925;-79
2024/03/18 02:51:58;;;;;;;;;;;;;;;;;;137131;1275;22909;-79
2024/03/18 02:54:59;;;;;;;;;;;;;;;;;;137084;1275;22934;-78
2024/03/18 02:58:00;;;;;;;;;;;;;;;;;;137127;1275;22510;-80
2024/03/18 03:01:01;;;;;;;;;;;;;;;;;;137244;1275;22512;-78
2024/03/18 03:04:03;;;;;;;;;;;;;;;;;;137098;1275;22527;-77
2024/03/18 03:07:04;;;;;;;;;;;;;;;;;;136959;1275;22564;-76
2024/03/18 03:10:05;;;;;;;;;;;;;;;;;;137215;1275;22530;-76
2024/03/18 03:13:06;;;;;;;;;;;;;;;;;;137020;1275;22550;-77
2024/03/18 03:16:07;;;;;;;;;;;;;;;;;;137089;1275;22529;-78
2024/03/18 03:19:08;;;;;;;;;;;;;;;;;;137347;1275;22510;-78
2024/03/18 03:22:09;;;;;;;;;;;;;;;;;;137037;1275;22536;-78
2024/03/18 03:25:11;;;;;;;;;;;;;;;;;;137081;1275;22492;-79
2024/03/18 03:28:13;;;;;;;;;;;;;;;;;;137316;1275;22922;-77
2024/03/18 03:31:14;;;;;;;;;;;;;;;;;;137002;1275;22584;-78
2024/03/18 03:34:15;;;;;;;;;;;;;;;;;;137037;1275;22545;-78
2024/03/18 03:37:18;;;;;;;;;;;;;;;;;;137079;1275;22532;-79
2024/03/18 03:40:19;;;;;;;;;;;;;;;;;;137275;1275;22516;-77
2024/03/18 03:43:21;;;;;;;;;;;;;;;;;;137020;1275;22537;-77
2024/03/18 03:46:22;;;;;;;;;;;;;;;;;;137016;1275;22569;-77
2024/03/18 03:49:24;;;;;;;;;;;;;;;;;;137387;1275;22545;-76
2024/03/18 03:52:25;;;;;;;;;;;;;;;;;;137029;1275;22972;-77
2024/03/18 03:55:26;;;;;;;;;;;;;;;;;;137395;1275;22339;-76
2024/03/18 03:58:28;;;;;;;;;;;;;;;;;;137365;1275;22307;-77
2024/03/18 04:01:29;;;;;;;;;;;;;;;;;;137375;1275;22778;-77
2024/03/18 04:04:30;;;;;;;;;;;;;;;;;;137382;1275;22809;-76
2024/03/18 04:07:31;;;;;;;;;;;;;;;;;;137372;1275;22323;-77
2024/03/18 04:10:32;;;;;;;;;;;;;;;;;;137336;1275;22275;-75
2024/03/18 04:13:33;;;;;;;;;;;;;;;;;;137377;1275;22381;-76
2024/03/18 04:16:34;;;;;;;;;;;;;;;;;;137366;1275;22322;-77
2024/03/18 04:19:35;;;;;;;;;;;;;;;;;;137320;1275;22353;-76
2024/03/18 04:22:36;;;;;;;;;;;;;;;;;;137377;1275;22357;-76
2024/03/18 04:25:37;;;;;;;;;;;;;;;;;;137177;1275;22506;-76
2024/03/18 04:28:38;;;;;;;;;;;;;;;;;;137311;1275;22508;-75
2024/03/18 04:31:39;;;;;;;;;;;;;;;;;;136944;1275;22512;-75
2024/03/18 04:34:40;;;;;;;;;;;;;;;;;;137062;1275;22496;-75
2024/03/18 04:37:46;;;;;;;;;;;;;;;;;;137337;1275;22518;-75
2024/03/18 04:40:47;;;;;;;;;;;;;;;;;;137112;1275;22557;-75
2024/03/18 04:43:48;;;;;;;;;;;;;;;;;;137117;1275;22503;-74
2024/03/18 04:46:50;;;;;;;;;;;;;;;;;;137423;1275;22522;-75
2024/03/18 04:49:51;;;;;;;;;;;;;;;;;;137382;1275;22500;-76
2024/03/18 04:52:52;;;;;;;;;;;;;;;;;;137438;1275;22307;-75
2024/03/18 04:55:53;;;;;;;;;;;;;;;;;;137064;1275;22520;-75
2024/03/18 04:58:54;;;;;;;;;;;;;;;;;;137301;1275;22314;-75
2024/03/18 05:01:55;;;;;;;;;;;;;;;;;;137339;1270;22313;-74
2024/03/18 05:04:57;;;;;;;;;;;;;;;;;;137304;1275;22335;-75
2024/03/18 05:07:58;;;;;;;;;;;;;;;;;;137330;1275;22309;-75
2024/03/18 05:10:59;;;;;;;;;;;;;;;;;;137324;1275;22359;-75
2024/03/18 05:14:00;;;;;;;;;;;;;;;;;;137278;1275;22395;-75
2024/03/18 05:17:01;;;;;;;;;;;;;;;;;;135383;1275;22653;-75
2024/03/18 05:20:04;;;;;;;;;;;;;;;;;;136476;1275;23210;-76
2024/03/18 05:23:05;;;;;;;;;;;;;;;;;;136594;1275;22542;-76
2024/03/18 05:26:06;;;;;;;;;;;;;;;;;;137248;1275;22571;-76
2024/03/18 05:29:07;;;;;;;;;;;;;;;;;;137279;1275;22558;-76
2024/03/18 05:32:08;;;;;;;;;;;;;;;;;;136834;1275;22576;-77
2024/03/18 05:35:09;;;;;;;;;;;;;;;;;;137133;1275;25601;-76
2024/03/18 05:38:11;;;;;;;;;;;;;;;;;;137313;1275;22516;-76
2024/03/18 05:41:12;;;;;;;;;;;;;;;;;;137437;1275;22418;-76
2024/03/18 05:44:13;;;;;;;;;;;;;;;;;;137365;1275;22463;-76
2024/03/18 05:47:14;;;;;;;;;;;;;;;;;;137315;1275;22313;-75
2024/03/18 05:50:16;;;;;;;;;;;;;;;;;;137340;1272;22387;-76
2024/03/18 05:53:17;;;;;;;;;;;;;;;;;;137328;1274;22362;-76
2024/03/18 05:56:18;;;;;;;;;;;;;;;;;;137314;1275;22365;-75
2024/03/18 05:59:19;;;;;;;;;;;;;;;;;;137332;1275;22366;-77
2024/03/18 06:02:20;;;;;;;;;;;;;;;;;;137369;1275;22360;-77
2024/03/18 06:05:22;;;;;;;;;;;;;;;;;;137359;1275;22320;-79
2024/03/18 06:08:24;;;;;;;;;;;;;;;;;;137414;1275;22394;-79
2024/03/18 06:11:26;;;;;;;;;;;;;;;;;;137004;1275;22520;-79
2024/03/18 06:14:27;;;;;;;;;;;;;;;;;;136972;1275;24480;-80
2024/03/18 06:17:29;;;;;;;;;;;;;;;;;;137201;1266;22531;-78
2024/03/18 06:20:30;;;;;;;;;;;;;;;;;;137095;1272;22511;-78
2024/03/18 06:23:33;;;;;;;;;;;;;;;;;;137395;1275;22269;-79
2024/03/18 06:26:34;;;;;;;;;;;;;;;;;;137369;1275;22291;-80
2024/03/18 06:29:35;;;;;;;;;;;;;;;;;;137446;1275;22337;-77
2024/03/18 06:32:37;;;;;;;;;;;;;;;;;;136497;1275;22555;-76
2024/03/18 06:35:38;;;;;;;;;;;;;;;;;;137356;1275;22310;-77
2024/03/18 06:38:39;;;;;;;;;;;;;;;;;;137289;1275;22336;-76
2024/03/18 06:41:40;;;;;;;;;;;;;;;;;;137126;1275;23328;-76
2024/03/18 06:44:43;;;;;;;;;;;;;;;;;;137284;1275;22376;-76
2024/03/18 06:47:44;;;;;;;;;;;;;;;;;;137327;1275;22317;-76
2024/03/18 06:50:45;;;;;;;;;;;;;;;;;;137272;1275;22683;-76
2024/03/18 06:53:46;;;;;;;;;;;;;;;;;;137325;1275;22346;-77
2024/03/18 06:56:47;;;;;;;;;;;;;;;;;;137363;1275;22322;-76
2024/03/18 06:59:48;;;;;;;;;;;;;;;;;;137339;1275;22315;-75
2024/03/18 07:02:50;;;;;;;;;;;;;;;;;;137321;1275;22356;-77
2024/03/18 07:05:51;;;;;;;;;;;;;;;;;;137349;1275;22335;-77
2024/03/18 07:08:52;;;;;;;;;;;;;;;;;;137359;1275;22337;-78
2024/03/18 07:11:53;;;;;;;;;;;;;;;;;;137397;1275;22798;-78
2024/03/18 07:14:54;;;;;;;;;;;;;;;;;;137364;1275;22423;-77
2024/03/18 07:17:55;;;;;;;;;;;;;;;;;;137413;1275;22336;-77
2024/03/18 07:20:56;;;;;;;;;;;;;;;;;;137332;1275;22602;-78
2024/03/18 07:23:59;;;;;;;;;;;;;;;;;;137379;1259;22326;-77
2024/03/18 07:27:02;;;;;;;;;;;;;;;;;;137366;1275;23072;-78
2024/03/18 07:30:03;;;;;;;;;;;;;;;;;;136842;1275;23355;-78
2024/03/18 07:33:06;;;;;;;;;;;;;;;;;;137361;1275;22343;-77
2024/03/18 07:36:07;;;;;;;;;;;;;;;;;;137386;1275;22740;-77
2024/03/18 07:39:08;;;;;;;;;;;;;;;;;;136640;1275;23114;-78
2024/03/18 07:42:11;;;;;;;;;;;;;;;;;;137387;1275;22307;-77
2024/03/18 07:45:12;;;;;;;;;;;;;;;;;;137386;1275;22449;-77
2024/03/18 07:48:13;;;;;;;;;;;;;;;;;;137092;1275;23358;-78
2024/03/18 07:51:14;;;;;;;;;;;;;;;;;;137372;1275;22842;-78
2024/03/18 07:54:16;;;;;;;;;;;;;;;;;;137154;1275;22557;-77
2024/03/18 07:57:17;;;;;;;;;;;;;;;;;;137020;1275;22494;-77
2024/03/18 08:00:18;;;;;;;;;;;;;;;;;;136506;1275;22969;-78
2024/03/18 08:03:19;;;;;;;;;;;;;;;;;;137267;1275;22479;-77
2024/03/18 08:06:20;;;;;;;;;;;;;;;;;;137472;1275;22323;-77
2024/03/18 08:09:21;;;;;;;;;;;;;;;;;;137470;1275;22323;-77
2024/03/18 08:12:23;;;;;;;;;;;;;;;;;;137438;1275;22301;-78
2024/03/18 08:15:24;;;;;;;;;;;;;;;;;;137378;1268;22415;-78
2024/03/18 08:18:25;;;;;;;;;;;;;;;;;;137379;1275;22878;-77
2024/03/18 08:21:26;;;;;;;;;;;;;;;;;;137236;1271;22884;-77
2024/03/18 08:24:27;;;;;;;;;;;;;;;;;;137211;1275;22587;-77
2024/03/18 08:27:32;;;;;;;;;;;;;;;;;;136245;1272;22527;-77
2024/03/18 08:30:33;;;;;;;;;;;;;;;;;;137095;1275;269462;-77
2024/03/18 08:33:34;;;;;;;;;;;;;;;;;;137241;1275;22330;-77
2024/03/18 08:36:35;;;;;;;;;;;;;;;;;;137300;1275;22326;-77
2024/03/18 08:39:36;;;;;;;;;;;;;;;;;;137314;1266;22340;-79
2024/03/18 08:42:37;;;;;;;;;;;;;;;;;;137323;1275;22347;-79
2024/03/18 08:45:39;;;;;;;;;;;;;;;;;;137288;1275;22434;-77
2024/03/18 08:48:41;;;;;;;;;;;;;;;;;;137306;1268;22289;-77
2024/03/18 08:51:43;;;;;;;;;;;;;;;;;;137295;1275;22332;-76
2024/03/18 08:54:47;;;;;;;;;;;;;;;;;;137270;1275;22351;-77
2024/03/18 08:57:48;;;;;;;;;;;;;;;;;;137323;1275;22287;-77
2024/03/18 09:00:50;;;;;;;;;;;;;;;;;;137273;1275;23261;-77
2024/03/18 09:03:51;;;;;;;;;;;;;;;;;;137307;1275;22389;-77
2024/03/18 09:06:52;;;;;;;;;;;;;;;;;;137286;1275;22935;-77
2024/03/18 09:09:53;;;;;;;;;;;;;;;;;;137301;1275;22741;-77
2024/03/18 09:12:54;;;;;;;;;;;;;;;;;;137235;1275;22910;-77
2024/03/18 09:15:55;;;;;;;;;;;;;;;;;;137178;1275;22347;-77
2024/03/18 09:18:57;;;;;;;;;;;;;;;;;;137244;1275;22735;-79
2024/03/18 09:21:59;;;;;;;;;;;;;;;;;;137273;1275;22298;-77
2024/03/18 09:25:03;;;;;;;;;;;;;;;;;;137303;1275;22688;-78
2024/03/18 09:28:04;;;;;;;;;;;;;;;;;;137323;1275;22328;-78
2024/03/18 09:31:05;;;;;;;;;;;;;;;;;;137373;1274;22752;-78
2024/03/18 09:34:06;;;;;;;;;;;;;;;;;;137368;1274;22344;-78
2024/03/18 09:37:07;;;;;;;;;;;;;;;;;;137271;1275;22345;-79
2024/03/18 09:40:10;;;;;;;;;;;;;;;;;;137303;1275;22366;-78
2024/03/18 09:43:11;;;;;;;;;;;;;;;;;;137263;1275;22425;-78
2024/03/18 09:46:12;;;;;;;;;;;;;;;;;;137295;1275;22345;-77
2024/03/18 09:49:14;;;;;;;;;;;;;;;;;;137253;1275;22362;-78
2024/03/18 09:52:16;;;;;;;;;;;;;;;;;;137309;1275;22881;-78
2024/03/18 09:55:17;;;;;;;;;;;;;;;;;;137287;1275;22698;-77
2024/03/18 09:58:18;;;;;;;;;;;;;;;;;;137278;1275;22279;-78
2024/03/18 10:01:21;;;;;;;;;;;;;;;;;;137367;1275;22330;-78
2024/03/18 10:04:22;;;;;;;;;;;;;;;;;;137381;1275;22297;-79
2024/03/18 10:07:23;;;;;;;;;;;;;;;;;;137286;1275;22384;-78
2024/03/18 10:10:26;;;;;;;;;;;;;;;;;;137279;1275;22335;-78
2024/03/18 10:13:27;;;;;;;;;;;;;;;;;;137227;1275;22518;-77
2024/03/18 10:16:28;;;;;;;;;;;;;;;;;;136395;1275;22508;-77
2024/03/18 10:19:29;;;;;;;;;;;;;;;;;;137346;1275;22356;-77
2024/03/18 10:22:30;;;;;;;;;;;;;;;;;;137399;1275;22347;-78
2024/03/18 10:25:31;;;;;;;;;;;;;;;;;;137327;1275;22534;-78
2024/03/18 10:28:32;;;;;;;;;;;;;;;;;;137364;1275;22335;-78
2024/03/18 10:31:37;;;;;;;;;;;;;;;;;;136873;1275;22537;-77
2024/03/18 10:34:39;;;;;;;;;;;;;;;;;;137197;1269;22512;-78
2024/03/18 10:37:40;;;;;;;;;;;;;;;;;;136734;1275;22507;-78
2024/03/18 10:40:41;;;;;;;;;;;;;;;;;;137242;1275;22600;-77
2024/03/18 10:43:43;;;;;;;;;;;;;;;;;;137479;1275;22905;-77
2024/03/18 10:46:44;;;;;;;;;;;;;;;;;;137449;1275;22348;-76
2024/03/18 10:49:45;;;;;;;;;;;;;;;;;;137393;1275;22397;-77
2024/03/18 10:52:46;;;;;;;;;;;;;;;;;;137321;1275;22398;-78
2024/03/18 10:55:48;;;;;;;;;;;;;;;;;;137297;1275;22408;-78
2024/03/18 10:58:50;;;;;;;;;;;;;;;;;;137309;1275;22321;-78
2024/03/18 11:01:51;;;;;;;;;;;;;;;;;;137301;1269;22289;-78
2024/03/18 11:04:52;;;;;;;;;;;;;;;;;;137256;1275;22380;-77
2024/03/18 11:07:53;;;;;;;;;;;;;;;;;;137249;1275;22336;-77
2024/03/18 11:10:54;;;;;;;;;;;;;;;;;;137217;1275;22280;-77
2024/03/18 11:13:55;;;;;;;;;;;;;;;;;;137254;1275;22769;-76
2024/03/18 11:16:56;;;;;;;;;;;;;;;;;;137291;1275;22377;-77
2024/03/18 11:19:57;;;;;;;;;;;;;;;;;;137329;1275;22356;-77
2024/03/18 11:22:58;;;;;;;;;;;;;;;;;;137301;1275;22332;-77
2024/03/18 11:25:59;;;;;;;;;;;;;;;;;;137276;1275;22332;-77
2024/03/18 11:29:01;;;;;;;;;;;;;;;;;;136885;1275;22507;-78
2024/03/18 11:32:02;;;;;;;;;;;;;;;;;;137073;1275;23201;-77
2024/03/18 11:35:03;;;;;;;;;;;;;;;;;;136861;1275;22561;-77
2024/03/18 11:38:04;;;;;;;;;;;;;;;;;;137326;1275;22314;-77
2024/03/18 11:41:05;;;;;;;;;;;;;;;;;;137321;1256;22271;-78
2024/03/18 11:44:06;;;;;;;;;;;;;;;;;;137302;1275;22538;-78
2024/03/18 11:47:08;;;;;;;;;;;;;;;;;;137314;1275;22843;-78
2024/03/18 11:50:10;;;;;;;;;;;;;;;;;;137216;1275;22544;-79
2024/03/18 11:53:11;;;;;;;;;;;;;;;;;;137264;1275;22322;-78
2024/03/18 11:56:12;;;;;;;;;;;;;;;;;;137287;1275;22754;-79
2024/03/18 11:59:14;;;;;;;;;;;;;;;;;;137267;1275;22293;-79
2024/03/18 12:02:15;;;;;;;;;;;;;;;;;;137257;1275;22387;-78
2024/03/18 12:05:16;;;;;;;;;;;;;;;;;;137347;1275;22355;-78
2024/03/18 12:08:17;;;;;;;;;;;;;;;;;;137295;1275;22291;-77
2024/03/18 12:11:19;;;;;;;;;;;;;;;;;;137284;1275;22330;-78
2024/03/18 12:14:20;;;;;;;;;;;;;;;;;;137279;1275;22392;-79
2024/03/18 12:17:21;;;;;;;;;;;;;;;;;;137294;1272;23179;-79
2024/03/18 12:20:22;;;;;;;;;;;;;;;;;;137349;1275;22337;-78
2024/03/18 12:30:02;;;;;;;;;;;;;;;;;;137309;1275;22909;-78
2024/03/18 12:33:03;;;;;;;;;;;;;;;;;;137365;1275;22334;-78
2024/03/18 12:36:06;;;;;;;;;;;;;;;;;;137275;1275;22321;-78
2024/03/18 12:39:09;;;;;;;;;;;;;;;;;;137311;1272;22291;-78
2024/03/18 12:42:10;;;;;;;;;;;;;;;;;;137293;1275;22326;-77
2024/03/18 12:45:11;;;;;;;;;;;;;;;;;;137277;1275;22457;-78
2024/03/18 12:48:12;;;;;;;;;;;;;;;;;;137358;1275;22806;-77
2024/03/18 12:51:15;;;;;;;;;;;;;;;;;;137318;1275;22324;-78
2024/03/18 12:54:17;;;;;;;;;;;;;;;;;;137312;1275;22360;-78
2024/03/18 12:57:18;;;;;;;;;;;;;;;;;;136842;1275;22597;-79
2024/03/18 13:00:19;;;;;;;;;;;;;;;;;;136921;1275;22524;-79
2024/03/18 13:03:20;;;;;;;;;;;;;;;;;;137394;1275;22343;-78
2024/03/18 13:06:21;;;;;;;;;;;;;;;;;;137344;1275;22327;-79
2024/03/18 13:09:23;;;;;;;;;;;;;;;;;;136607;1275;22504;-76
2024/03/18 13:12:24;;;;;;;;;;;;;;;;;;136782;1275;24225;-79
2024/03/18 13:15:26;;;;;;;;;;;;;;;;;;136375;1275;22525;-79
2024/03/18 13:18:27;;;;;;;;;;;;;;;;;;137404;1275;22404;-80
2024/03/18 13:21:31;;;;;;;;;;;;;;;;;;137392;1275;22331;-78
2024/03/18 13:24:32;;;;;;;;;;;;;;;;;;137310;1275;22332;-79
2024/03/18 13:27:33;;;;;;;;;;;;;;;;;;137330;1275;22427;-79
2024/03/18 13:30:34;;;;;;;;;;;;;;;;;;137244;1275;22330;-78
2024/03/18 13:33:36;;;;;;;;;;;;;;;;;;137284;1275;22372;-77
2024/03/18 13:36:37;;;;;;;;;;;;;;;;;;137318;1271;22754;-79
2024/03/18 13:39:38;;;;;;;;;;;;;;;;;;137352;1275;22697;-79
2024/03/18 13:42:41;;;;;;;;;;;;;;;;;;137336;1275;22341;-79
2024/03/18 13:45:42;;;;;;;;;;;;;;;;;;137323;1275;22380;-80
2024/03/18 13:48:43;;;;;;;;;;;;;;;;;;137389;1275;22369;-79
2024/03/18 13:51:44;;;;;;;;;;;;;;;;;;137342;1275;22285;-78
2024/03/18 13:54:45;;;;;;;;;;;;;;;;;;137329;1275;22369;-80
2024/03/18 13:57:47;;;;;;;;;;;;;;;;;;137291;1275;22320;-80
2024/03/18 14:00:48;;;;;;;;;;;;;;;;;;137341;1275;22838;-79
2024/03/18 14:03:49;;;;;;;;;;;;;;;;;;137325;1275;22373;-79
2024/03/18 14:06:50;;;;;;;;;;;;;;;;;;137296;1275;22615;-79
2024/03/18 14:09:51;;;;;;;;;;;;;;;;;;137329;1275;22295;-80
2024/03/18 14:12:52;;;;;;;;;;;;;;;;;;137329;1275;22991;-79
2024/03/18 14:15:53;;;;;;;;;;;;;;;;;;137364;1275;22345;-79
2024/03/18 14:18:55;;;;;;;;;;;;;;;;;;137314;1275;22386;-79
2024/03/18 14:21:56;;;;;;;;;;;;;;;;;;137348;1275;22319;-79
2024/03/18 14:25:00;;;;;;;;;;;;;;;;;;137385;1275;22390;-79
2024/03/18 14:28:04;;;;;;;;;;;;;;;;;;137360;1275;23082;-80
2024/03/18 14:31:06;;;;;;;;;;;;;;;;;;137292;1275;22340;-79
2024/03/18 14:34:07;;;;;;;;;;;;;;;;;;137355;1275;22256;-79
2024/03/18 14:37:09;;;;;;;;;;;;;;;;;;137360;1275;22307;-79
2024/03/18 14:40:11;;;;;;;;;;;;;;;;;;137427;1275;22342;-79
2024/03/18 14:43:15;;;;;;;;;;;;;;;;;;137367;1275;22893;-80
2024/03/18 14:46:16;;;;;;;;;;;;;;;;;;137339;1275;22336;-78
2024/03/18 14:49:17;;;;;;;;;;;;;;;;;;137366;1275;22355;-79
2024/03/18 14:52:18;;;;;;;;;;;;;;;;;;137412;1275;22316;-79
2024/03/18 14:55:19;;;;;;;;;;;;;;;;;;137366;1275;22381;-78
2024/03/18 14:58:21;;;;;;;;;;;;;;;;;;137395;1275;22357;-80
2024/03/18 15:01:22;;;;;;;;;;;;;;;;;;137361;1275;22340;-79
2024/03/18 15:04:23;;;;;;;;;;;;;;;;;;137394;1275;22441;-79
2024/03/18 15:07:25;;;;;;;;;;;;;;;;;;137388;1275;22338;-78
2024/03/18 15:10:26;;;;;;;;;;;;;;;;;;137394;1275;22348;-78
2024/03/18 15:13:27;;;;;;;;;;;;;;;;;;137345;1275;22431;-78
2024/03/18 15:16:28;;;;;;;;;;;;;;;;;;137374;1275;22329;-77
2024/03/18 15:19:32;;;;;;;;;;;;;;;;;;137217;1275;22951;-78
2024/03/18 15:22:34;;;;;;;;;;;;;;;;;;137338;1275;22348;-78
2024/03/18 15:28:55;;;;;;;;;;;;;;;;;;137371;1275;22307;-78
2024/03/18 15:31:56;;;;;;;;;;;;;;;;;;136897;1275;22620;-77
2024/03/18 15:34:57;;;;;;;;;;;;;;;;;;136981;1275;22563;-77
2024/03/18 15:37:58;;;;;;;;;;;;;;;;;;137368;1275;22317;-77
2024/03/18 15:40:59;;;;;;;;;;;;;;;;;;136746;1275;22510;-78
2024/03/18 15:44:00;;;;;;;;;;;;;;;;;;137222;1275;22540;-78
2024/03/18 15:47:01;;;;;;;;;;;;;;;;;;136719;1275;22501;-77
2024/03/18 15:50:04;;;;;;;;;;;;;;;;;;136756;1275;22569;-79
2024/03/18 15:53:06;;;;;;;;;;;;;;;;;;137224;1275;22593;-79
2024/03/18 15:56:09;;;;;;;;;;;;;;;;;;137128;1275;22506;-80
2024/03/18 15:59:10;;;;;;;;;;;;;;;;;;136946;1275;22543;-79
2024/03/18 16:02:11;;;;;;;;;;;;;;;;;;137414;1275;22505;-80
2024/03/18 16:05:12;;;;;;;;;;;;;;;;;;137034;1274;22879;-80
2024/03/18 16:08:14;;;;;;;;;;;;;;;;;;137038;1275;22573;-80
2024/03/18 16:11:15;;;;;;;;;;;;;;;;;;137294;1275;22506;-81
2024/03/18 16:14:16;;;;;;;;;;;;;;;;;;136402;1275;22532;-79
2024/03/18 16:17:17;;;;;;;;;;;;;;;;;;137433;1275;22401;-80
2024/03/18 16:20:18;;;;;;;;;;;;;;;;;;137068;1275;22518;-79
2024/03/18 16:23:21;;;;;;;;;;;;;;;;;;137331;1275;22594;-80
2024/03/18 16:26:22;;;;;;;;;;;;;;;;;;137161;1275;22531;-80
2024/03/18 16:29:23;;;;;;;;;;;;;;;;;;136699;1275;22984;-80
2024/03/18 16:32:24;;;;;;;;;;;;;;;;;;136387;1275;22535;-79
2024/03/18 16:35:25;;;;;;;;;;;;;;;;;;137354;1275;23380;-79
2024/03/18 16:38:26;;;;;;;;;;;;;;;;;;136599;1275;22914;-80
2024/03/18 16:41:28;;;;;;;;;;;;;;;;;;136665;1275;23110;-80
2024/03/18 16:44:29;;;;;;;;;;;;;;;;;;137296;1275;22545;-80
2024/03/18 16:47:30;;;;;;;;;;;;;;;;;;136632;1275;22571;-78
2024/03/18 16:50:31;;;;;;;;;;;;;;;;;;136713;1275;22553;-80
2024/03/18 16:53:33;;;;;;;;;;;;;;;;;;137077;1275;25417;-79
2024/03/18 16:56:34;;;;;;;;;;;;;;;;;;136942;1275;23159;-80
2024/03/18 16:59:35;;;;;;;;;;;;;;;;;;136766;1275;23016;-80
2024/03/18 17:02:36;;;;;;;;;;;;;;;;;;137042;1275;23178;-79
2024/03/18 17:05:37;;;;;;;;;;;;;;;;;;136937;1275;22553;-83
2024/03/18 17:08:38;;;;;;;;;;;;;;;;;;136597;1275;22997;-81
2024/03/18 17:11:39;;;;;;;;;;;;;;;;;;136773;1275;22550;-81
2024/03/18 17:14:40;;;;;;;;;;;;;;;;;;136445;1275;22539;-80
2024/03/18 17:17:41;;;;;;;;;;;;;;;;;;136786;1275;22527;-82
2024/03/18 17:20:42;;;;;;;;;;;;;;;;;;137346;1275;23115;-80
2024/03/18 17:23:44;;;;;;;;;;;;;;;;;;137090;1275;22615;-81
2024/03/18 17:26:45;;;;;;;;;;;;;;;;;;136868;1275;22670;-80
2024/03/18 17:29:46;;;;;;;;;;;;;;;;;;137363;1273;22463;-79
2024/03/18 17:32:47;;;;;;;;;;;;;;;;;;137100;1275;22578;-81
2024/03/18 17:35:51;;;;;;;;;;;;;;;;;;136940;1275;23098;-82
2024/03/18 17:38:54;;;;;;;;;;;;;;;;;;137158;1275;22555;-80
2024/03/18 17:41:55;;;;;;;;;;;;;;;;;;137084;1275;22489;-81
2024/03/18 17:44:56;;;;;;;;;;;;;;;;;;137208;1270;22499;-82
2024/03/18 17:47:57;;;;;;;;;;;;;;;;;;137416;1275;22345;-82
2024/03/18 17:50:58;;;;;;;;;;;;;;;;;;137415;1275;22782;-81
2024/03/18 17:53:59;;;;;;;;;;;;;;;;;;137419;1275;22360;-81
2024/03/18 17:57:00;;;;;;;;;;;;;;;;;;137443;1275;22386;-81
2024/03/18 18:00:02;;;;;;;;;;;;;;;;;;137282;1275;22521;-78
2024/03/18 18:03:03;;;;;;;;;;;;;;;;;;136749;1268;22509;-81
2024/03/18 18:06:05;;;;;;;;;;;;;;;;;;136965;1275;23043;-82
2024/03/18 18:09:06;;;;;;;;;;;;;;;;;;137254;1275;23011;-82
2024/03/18 18:12:07;;;;;;;;;;;;;;;;;;136883;1275;22510;-82
2024/03/18 18:15:12;;;;;;;;;;;;;;;;;;136961;1275;22511;-82
2024/03/18 18:18:13;;;;;;;;;;;;;;;;;;137278;1275;22615;-81
2024/03/18 18:21:14;;;;;;;;;;;;;;;;;;137136;1275;22529;-81
2024/03/18 18:24:15;;;;;;;;;;;;;;;;;;136982;1275;22540;-80
2024/03/18 18:27:16;;;;;;;;;;;;;;;;;;136887;1275;22987;-81
2024/03/18 18:30:19;;;;;;;;;;;;;;;;;;137170;1275;22538;-79
2024/03/18 18:33:20;;;;;;;;;;;;;;;;;;137172;1275;22512;-80
2024/03/18 18:36:21;;;;;;;;;;;;;;;;;;137506;1275;22577;-78
2024/03/18 18:39:22;;;;;;;;;;;;;;;;;;137353;1275;22526;-79
2024/03/18 18:42:23;;;;;;;;;;;;;;;;;;137329;1275;22507;-80
2024/03/18 18:45:24;;;;;;;;;;;;;;;;;;137007;1275;22598;-80
2024/03/18 18:48:26;;;;;;;;;;;;;;;;;;137315;1275;22565;-80
2024/03/18 18:51:30;;;;;;;;;;;;;;;;;;136855;1267;22510;-80
2024/03/18 18:54:31;;;;;;;;;;;;;;;;;;136681;1275;22540;-80
2024/03/18 18:57:32;;;;;;;;;;;;;;;;;;137033;1275;22542;-80
2024/03/18 19:00:33;;;;;;;;;;;;;;;;;;137104;1275;22508;-81
2024/03/18 19:03:35;;;;;;;;;;;;;;;;;;136654;1275;22546;-81
2024/03/18 19:06:36;;;;;;;;;;;;;;;;;;136915;1275;22530;-79
2024/03/18 19:09:39;;;;;;;;;;;;;;;;;;137276;1275;23015;-80
2024/03/18 19:12:40;;;;;;;;;;;;;;;;;;137114;1272;22531;-82
2024/03/18 19:15:42;;;;;;;;;;;;;;;;;;137204;1272;22551;-81
2024/03/18 19:18:43;;;;;;;;;;;;;;;;;;137702;1272;22322;-82
2024/03/18 19:21:44;;;;;;;;;;;;;;;;;;137439;1272;22477;-81
2024/03/18 19:24:45;;;;;;;;;;;;;;;;;;137180;1268;22504;-81
2024/03/18 19:27:46;;;;;;;;;;;;;;;;;;137699;1272;22673;-82
2024/03/18 19:30:47;;;;;;;;;;;;;;;;;;137697;1260;22304;-81
2024/03/18 19:33:49;;;;;;;;;;;;;;;;;;137438;1272;22501;-83
2024/03/18 19:36:52;;;;;;;;;;;;;;;;;;137372;1267;22674;-81
2024/03/18 19:39:53;;;;;;;;;;;;;;;;;;137440;1272;22557;-80
2024/03/18 19:42:57;;;;;;;;;;;;;;;;;;137048;1272;22543;-78
2024/03/18 19:45:58;;;;;;;;;;;;;;;;;;137023;1272;22520;-81
2024/03/18 19:48:59;;;;;;;;;;;;;;;;;;137695;1272;22547;-82
2024/03/18 19:52:00;;;;;;;;;;;;;;;;;;137090;1272;22541;-81
2024/03/18 19:55:06;;;;;;;;;;;;;;;;;;137026;1272;22575;-81
2024/03/18 19:58:07;;;;;;;;;;;;;;;;;;137676;1272;22555;-81
2024/03/18 20:01:11;;;;;;;;;;;;;;;;;;137019;1272;22547;-82
2024/03/18 20:04:12;;;;;;;;;;;;;;;;;;136956;1272;22514;-80
2024/03/18 20:07:13;;;;;;;;;;;;;;;;;;137440;1272;22523;-80
2024/03/18 20:10:14;;;;;;;;;;;;;;;;;;137297;1272;22573;-80
2024/03/18 20:13:15;;;;;;;;;;;;;;;;;;137701;1272;22403;-81
2024/03/18 20:16:16;;;;;;;;;;;;;;;;;;137201;1272;22577;-81
2024/03/18 20:19:17;;;;;;;;;;;;;;;;;;137570;1263;22542;-81
2024/03/18 20:22:18;;;;;;;;;;;;;;;;;;137101;1272;22533;-81
2024/03/18 20:25:19;;;;;;;;;;;;;;;;;;137032;1272;24288;-81
2024/03/18 20:28:20;;;;;;;;;;;;;;;;;;137380;1272;414637;-81